Time;durP1;ratioP1;P1;durP2;ratioP2;P2;SDS_P1;SDS_P2;PMS_P1;PMS_P2;Temp;Humidity;BMP_temperature;BMP_pressure;BME280_temperature;BME280_humidity;BME280_pressure;Samples;Min_cycle;Max_cycle;Signal;HPM_P1;HPM_P2
2023/05/06 13:01:42;;;;;;;10.27;9.27;;;;;;;23.33;100.00;166675.59;5128380;27;20537;-57
2023/05/06 13:04:08;;;;;;;11.57;10.57;;;;;;;23.05;100.00;166603.50;5119622;27;20047;-57
2023/05/06 13:06:33;;;;;;;11.30;9.93;;;;;;;23.43;100.00;166702.81;5087334;28;20042;-57
2023/05/06 13:08:59;;;;;;;9.93;8.93;;;;;;;23.43;100.00;166702.81;5085968;28;20674;-57
2023/05/06 13:11:24;;;;;;;11.60;10.43;;;;;;;23.55;100.00;166734.06;5087935;28;20062;-57
2023/05/06 13:13:50;;;;;;;8.70;7.82;;;;;;;23.42;100.00;166701.41;5086268;28;20111;-57
2023/05/06 13:16:15;;;;;;;9.98;9.13;;;;;;;23.49;100.00;166719.09;5088273;28;20600;-57
2023/05/06 13:18:40;;;;;;;10.88;9.85;;;;;;;23.61;100.00;166751.72;5086859;28;20077;-57
2023/05/06 13:21:06;;;;;;;9.15;8.27;;;;;;;23.59;100.00;166746.31;5087451;28;20386;-57
2023/05/06 13:23:33;;;;;;;10.55;9.45;;;;;;;23.71;100.00;166777.59;5088026;28;20035;-57
2023/05/06 13:26:01;;;;;;;9.95;9.10;;;;;;;23.57;100.00;166739.47;5086639;28;20043;-57
2023/05/06 13:28:27;;;;;;;9.82;8.82;;;;;;;23.60;100.00;166749.00;5087472;28;20476;-57
2023/05/06 13:30:52;;;;;;;11.02;8.85;;;;;;;23.58;100.00;166742.22;5086547;28;20055;-57
2023/05/06 13:33:17;;;;;;;11.57;10.07;;;;;;;23.14;100.00;166627.97;5071253;28;20024;-58
2023/05/06 13:35:43;;;;;;;9.27;8.35;;;;;;;22.22;100.00;166384.66;5083356;28;20612;-57
2023/05/06 13:38:08;;;;;;;10.57;9.48;;;;;;;22.89;100.00;166560.03;5087795;28;20024;-57
2023/05/06 13:40:33;;;;;;;13.93;9.57;;;;;;;23.22;100.00;166647.06;5085823;28;20037;-57
2023/05/06 13:42:59;;;;;;;11.25;8.98;;;;;;;23.44;100.00;166705.53;5087091;28;20024;-57
2023/05/06 13:45:24;;;;;;;8.70;7.68;;;;;;;23.55;100.00;166734.06;5085983;28;20044;-57
2023/05/06 13:47:50;;;;;;;9.55;8.15;;;;;;;23.33;100.00;166676.97;5087781;28;20447;-57
2023/05/06 13:50:15;;;;;;;8.07;7.28;;;;;;;23.51;100.00;166723.19;5085710;28;20044;-58
2023/05/06 13:52:40;;;;;;;12.60;8.77;;;;;;;23.67;100.00;166766.69;5086192;28;20028;-58
2023/05/06 13:55:06;;;;;;;11.63;8.73;;;;;;;23.76;100.00;166791.19;5076918;28;20040;-58
2023/05/06 13:57:32;;;;;;;10.32;6.75;;;;;;;23.56;100.00;166738.16;5087093;28;20395;-57
2023/05/06 13:59:57;;;;;;;7.45;6.15;;;;;;;23.54;100.00;166731.34;5085822;28;20116;-58
2023/05/06 14:02:22;;;;;;;10.38;5.80;;;;;;;23.72;100.00;166780.28;5086898;28;20074;-57
2023/05/06 14:04:48;;;;;;;6.53;5.93;;;;;;;23.55;100.00;166735.41;5085621;28;20406;-57
2023/05/06 14:07:13;;;;;;;7.50;6.25;;;;;;;23.59;100.00;166744.94;5087500;28;20144;-57
2023/05/06 14:09:39;;;;;;;8.57;7.68;;;;;;;23.45;100.00;166709.59;5085302;28;20052;-58
2023/05/06 14:12:04;;;;;;;13.60;7.72;;;;;;;23.52;100.00;166725.91;5079098;28;20028;-58
2023/05/06 14:14:30;;;;;;;8.35;7.47;;;;;;;23.61;100.00;166751.72;5072097;28;20037;-57
2023/05/06 14:16:55;;;;;;;7.80;7.10;;;;;;;23.82;100.00;166804.75;5073828;28;20025;-57
2023/05/06 14:19:20;;;;;;;6.97;6.32;;;;;;;23.74;100.00;166784.38;5071514;28;20090;-58
2023/05/06 14:21:46;;;;;;;7.90;7.18;;;;;;;23.69;100.00;166772.16;5073253;28;20540;-57
2023/05/06 14:24:11;;;;;;;8.63;7.75;;;;;;;23.60;100.00;166747.66;5071988;28;20403;-58
2023/05/06 14:26:37;;;;;;;7.93;7.18;;;;;;;23.37;100.00;166687.84;5073061;28;20028;-58
2023/05/06 14:29:02;;;;;;;8.73;7.93;;;;;;;23.29;100.00;166666.09;5072050;28;20040;-58
2023/05/06 14:31:28;;;;;;;11.05;9.43;;;;;;;23.42;100.00;166701.41;5073068;28;20027;-58
2023/05/06 14:33:53;;;;;;;11.20;7.38;;;;;;;23.55;100.00;166734.06;5071587;28;20025;-58
2023/05/06 14:36:19;;;;;;;8.90;7.65;;;;;;;23.57;100.00;166740.88;5073315;28;20023;-58
2023/05/06 14:38:44;;;;;;;11.48;8.48;;;;;;;23.56;100.00;166736.81;5071904;28;20032;-58
2023/05/06 14:41:10;;;;;;;7.68;6.97;;;;;;;23.54;100.00;166731.34;5072527;28;20036;-57
2023/05/06 14:43:35;;;;;;;10.02;7.53;;;;;;;23.28;100.00;166664.75;5072741;28;20073;-57
2023/05/06 14:46:01;;;;;;;9.32;8.43;;;;;;;23.36;100.00;166683.78;5051900;28;20052;-57
2023/05/06 14:48:26;;;;;;;9.60;8.77;;;;;;;23.26;100.00;166657.94;5052331;28;20021;-58
2023/05/06 14:50:51;;;;;;;10.32;9.18;;;;;;;23.08;100.00;166610.34;5070532;28;20506;-57
2023/05/06 14:53:17;;;;;;;14.07;10.65;;;;;;;22.71;100.00;166513.81;5072736;28;20017;-58
2023/05/06 14:55:44;;;;;;;11.32;9.13;;;;;;;22.33;100.00;166413.19;5070971;28;20043;-57
2023/05/06 14:58:09;;;;;;;10.70;8.13;;;;;;;22.29;100.00;166402.34;5072750;28;20043;-57
2023/05/06 15:00:35;;;;;;;9.82;9.02;;;;;;;21.86;100.00;166289.56;5070516;28;20069;-57
2023/05/06 15:03:00;;;;;;;10.18;9.00;;;;;;;21.89;100.00;166296.34;5072642;28;20017;-58
2023/05/06 15:05:25;;;;;;;14.60;10.15;;;;;;;21.91;100.00;166301.81;5070994;28;20552;-57
2023/05/06 15:07:51;;;;;;;11.30;10.18;;;;;;;22.09;100.00;166350.69;5072387;28;20024;-57
2023/05/06 15:10:16;;;;;;;11.57;10.27;;;;;;;22.02;100.00;166331.66;5071155;28;20032;-58
2023/05/06 15:12:42;;;;;;;9.82;8.93;;;;;;;22.03;100.00;166334.38;5072120;28;20074;-57
2023/05/06 15:15:07;;;;;;;11.45;9.45;;;;;;;21.80;100.00;166273.28;5071034;28;20040;-57
2023/05/06 15:17:33;;;;;;;10.43;9.43;;;;;;;21.43;100.00;166176.78;5072253;28;20025;-57
2023/05/06 15:19:58;;;;;;;8.60;7.75;;;;;;;21.00;100.00;166062.72;5070624;28;20045;-58
2023/05/06 15:22:23;;;;;;;8.18;7.28;;;;;;;20.65;100.00;165970.34;5072050;28;20024;-57
2023/05/06 15:24:49;;;;;;;11.27;7.35;;;;;;;20.75;100.00;165998.91;5070326;28;20460;-57
2023/05/06 15:27:14;;;;;;;7.93;6.43;;;;;;;20.56;100.00;165948.63;5071922;28;20036;-57
2023/05/06 15:29:39;;;;;;;7.22;5.95;;;;;;;20.75;100.00;165998.91;5070646;28;20048;-58
2023/05/06 15:32:05;;;;;;;8.27;6.70;;;;;;;20.66;100.00;165973.06;5072202;28;20076;-57
2023/05/06 15:34:31;;;;;;;8.13;5.80;;;;;;;20.52;100.00;165937.72;5070169;28;20040;-57
2023/05/06 15:36:59;;;;;;;7.32;6.05;;;;;;;20.26;100.00;165869.88;5072100;28;20024;-57
2023/05/06 15:39:25;;;;;;;7.55;6.70;;;;;;;20.15;100.00;165840.00;5070644;28;20049;-57
2023/05/06 15:41:50;;;;;;;14.05;7.72;;;;;;;20.35;100.00;165891.59;5071423;28;20390;-57
2023/05/06 15:44:15;;;;;;;9.10;7.18;;;;;;;20.03;100.00;165808.78;5070528;28;20032;-57
2023/05/06 15:46:41;;;;;;;11.40;8.50;;;;;;;19.76;100.00;165736.84;5071698;28;20415;-57
2023/05/06 15:49:06;;;;;;;10.10;8.02;;;;;;;19.93;100.00;165783.00;5069985;28;20044;-57
2023/05/06 15:51:31;;;;;;;10.43;7.53;;;;;;;19.90;100.00;165773.50;5070945;28;20036;-57
2023/05/06 15:53:57;;;;;;;10.10;8.27;;;;;;;19.78;100.00;165742.25;5070107;28;20089;-57
2023/05/06 15:56:22;;;;;;;7.75;6.95;;;;;;;19.80;100.00;165747.69;5070984;28;20028;-57
2023/05/06 15:58:48;;;;;;;12.80;8.20;;;;;;;19.51;100.00;165671.69;5070422;28;20028;-57
2023/05/06 16:01:14;;;;;;;7.47;6.78;;;;;;;19.49;100.00;165666.25;5071115;28;20515;-57
2023/05/06 16:03:40;;;;;;;8.88;7.90;;;;;;;19.59;100.00;165693.41;5069537;28;20103;-57
2023/05/06 16:06:06;;;;;;;8.13;6.70;;;;;;;19.60;100.00;165694.75;5071403;28;20025;-57
2023/05/06 16:08:31;;;;;;;7.70;6.88;;;;;;;19.63;100.00;165704.25;5071312;28;20021;-57
2023/05/06 16:10:56;;;;;;;9.88;6.72;;;;;;;19.73;100.00;165728.69;5069693;28;20040;-57
2023/05/06 16:13:22;;;;;;;8.88;7.85;;;;;;;19.71;100.00;165723.25;5071330;28;20028;-57
2023/05/06 16:15:48;;;;;;;9.23;8.25;;;;;;;19.82;100.00;165753.13;5070120;28;20040;-57
2023/05/06 16:18:13;;;;;;;7.18;6.38;;;;;;;19.80;100.00;165747.69;5071197;28;20493;-57
2023/05/06 16:20:39;;;;;;;6.75;6.15;;;;;;;19.90;100.00;165773.50;5069357;28;20044;-57
2023/05/06 16:23:05;;;;;;;10.23;6.20;;;;;;;19.80;100.00;165747.69;5071420;28;20036;-57
2023/05/06 16:25:30;;;;;;;8.63;7.50;;;;;;;19.78;100.00;165742.25;5069108;28;20032;-57
2023/05/06 16:27:56;;;;;;;7.22;6.53;;;;;;;19.80;100.00;165747.69;5071349;28;20387;-57
2023/05/06 16:30:21;;;;;;;7.63;6.93;;;;;;;19.92;100.00;165780.28;5069506;28;20113;-57
2023/05/06 16:32:47;;;;;;;8.80;6.40;;;;;;;19.85;100.00;165761.28;5070586;28;20382;-57
2023/05/06 16:35:13;;;;;;;10.27;7.18;;;;;;;19.87;100.00;165765.38;5069394;28;20507;-57
2023/05/06 16:37:38;;;;;;;9.02;8.13;;;;;;;19.86;100.00;165764.00;5070811;28;20835;-57
2023/05/06 16:40:04;;;;;;;8.88;7.55;;;;;;;19.79;100.00;165744.97;5069071;28;20590;-57
2023/05/06 16:42:29;;;;;;;11.43;9.02;;;;;;;19.65;100.00;165709.69;5070125;28;20056;-57
2023/05/06 16:44:55;;;;;;;8.73;7.65;;;;;;;19.64;100.00;165706.97;5049588;28;20492;-57
2023/05/06 16:47:22;;;;;;;7.70;7.00;;;;;;;19.67;100.00;165713.75;5050282;28;20032;-57
2023/05/06 16:49:48;;;;;;;11.07;8.57;;;;;;;19.63;100.00;165704.25;5049390;28;20064;-57
2023/05/06 16:52:14;;;;;;;9.13;8.25;;;;;;;19.46;100.00;165658.16;5050799;28;20044;-57
2023/05/06 16:54:39;;;;;;;13.48;8.35;;;;;;;19.37;100.00;165633.72;5048640;28;20064;-57
2023/05/06 16:57:05;;;;;;;11.25;10.05;;;;;;;19.30;100.00;165616.06;5050716;28;20471;-57
2023/05/06 16:59:30;;;;;;;9.68;8.85;;;;;;;19.21;100.00;165593.00;5049048;28;20047;-57
2023/05/06 17:01:55;;;;;;;10.70;9.20;;;;;;;19.21;100.00;165593.00;5050201;28;20032;-57
2023/05/06 17:04:23;;;;;;;7.90;7.20;;;;;;;19.15;100.00;165576.75;5049062;28;20044;-57
2023/05/06 17:06:48;;;;;;;11.07;9.03;;;;;;;19.15;100.00;165576.75;5050436;28;20476;-58
2023/05/06 17:09:14;;;;;;;12.13;8.57;;;;;;;19.13;100.00;165571.31;5048597;28;20037;-57
2023/05/06 17:11:39;;;;;;;10.05;8.55;;;;;;;19.12;100.00;165568.59;5050726;28;20411;-57
2023/05/06 17:14:04;;;;;;;11.35;8.48;;;;;;;19.09;100.00;165560.47;5051177;28;20407;-56
2023/05/06 17:16:30;;;;;;;11.77;8.30;;;;;;;18.92;100.00;165515.66;5061438;28;20025;-57
2023/05/06 17:18:55;;;;;;;8.68;7.78;;;;;;;18.93;100.00;165519.78;5063084;28;20028;-57
2023/05/06 17:21:20;;;;;;;11.30;9.63;;;;;;;18.83;100.00;165492.56;5068437;28;20027;-57
2023/05/06 17:23:46;;;;;;;11.57;9.07;;;;;;;18.78;100.00;165479.03;5051260;28;20039;-57
2023/05/06 17:26:11;;;;;;;10.43;7.60;;;;;;;18.76;100.00;165473.59;5049893;28;20411;-57
2023/05/06 17:28:37;;;;;;;9.73;8.50;;;;;;;18.67;100.00;165451.88;5049590;28;20426;-52
2023/05/06 17:31:02;;;;;;;8.77;7.97;;;;;;;18.62;100.00;165436.94;5069750;28;20013;-57
2023/05/06 17:33:27;;;;;;;11.98;8.63;;;;;;;18.54;100.00;165416.63;5069671;28;20025;-57
2023/05/06 17:35:52;;;;;;;10.25;8.70;;;;;;;18.47;100.00;165397.66;5068764;28;20517;-57
2023/05/06 17:38:18;;;;;;;12.50;8.52;;;;;;;18.41;100.00;165382.72;5069915;28;20391;-57
2023/05/06 17:40:43;;;;;;;14.75;9.98;;;;;;;18.32;100.00;165359.69;5067768;28;20036;-57
2023/05/06 17:43:08;;;;;;;11.85;8.75;;;;;;;18.29;100.00;165350.19;5070326;28;20074;-56
2023/05/06 17:45:34;;;;;;;9.23;8.07;;;;;;;18.24;100.00;165338.00;5068437;28;20060;-57
2023/05/06 17:47:59;;;;;;;10.80;8.60;;;;;;;18.21;100.00;165329.84;5072285;28;20036;-56
2023/05/06 17:50:25;;;;;;;11.80;8.75;;;;;;;18.21;100.00;165331.22;5071427;28;20028;-57
2023/05/06 17:52:51;;;;;;;12.13;9.10;;;;;;;18.16;100.00;165316.28;5073569;28;20032;-57
2023/05/06 17:55:16;;;;;;;9.35;8.13;;;;;;;18.11;100.00;165302.75;5071976;28;20047;-57
2023/05/06 17:57:42;;;;;;;11.88;7.70;;;;;;;18.10;100.00;165300.03;5073431;28;20016;-57
2023/05/06 18:00:08;;;;;;;11.45;8.38;;;;;;;18.08;100.00;165295.97;5071648;28;20044;-57
2023/05/06 18:02:35;;;;;;;12.20;8.35;;;;;;;18.08;100.00;165297.31;5072445;28;20029;-57
2023/05/06 18:05:00;;;;;;;10.10;8.50;;;;;;;17.99;100.00;165272.91;5071780;28;20052;-56
2023/05/06 18:07:26;;;;;;;11.25;7.28;;;;;;;17.89;100.00;165245.75;5073151;28;20025;-57
2023/05/06 18:09:52;;;;;;;9.32;8.18;;;;;;;17.88;100.00;165243.03;5071524;28;20071;-57
2023/05/06 18:12:18;;;;;;;9.27;7.65;;;;;;;17.77;100.00;165215.91;5073631;28;20021;-57
2023/05/06 18:14:43;;;;;;;12.43;8.68;;;;;;;17.79;100.00;165218.63;5071543;28;20067;-57
2023/05/06 18:17:09;;;;;;;9.52;7.15;;;;;;;17.69;100.00;165194.22;5071459;28;20597;-57
2023/05/06 18:19:35;;;;;;;7.25;6.47;;;;;;;17.65;100.00;165183.41;5071453;28;20449;-57
2023/05/06 18:22:01;;;;;;;8.90;6.78;;;;;;;17.59;100.00;165168.47;5073407;28;20234;-57
2023/05/06 18:24:26;;;;;;;11.65;9.05;;;;;;;17.59;100.00;165168.47;5071282;28;20515;-57
2023/05/06 18:26:51;;;;;;;9.20;7.00;;;;;;;17.55;100.00;165156.28;5071452;28;20031;-57
2023/05/06 18:29:17;;;;;;;15.02;8.48;;;;;;;17.50;100.00;165142.72;5071114;28;20036;-57
2023/05/06 18:31:42;;;;;;;10.70;8.77;;;;;;;17.47;100.00;165134.59;5072308;28;20041;-57
2023/05/06 18:34:07;;;;;;;8.40;7.35;;;;;;;17.45;100.00;165130.53;5067370;28;20040;-57
2023/05/06 18:36:34;;;;;;;13.43;6.97;;;;;;;17.47;100.00;165135.97;5072642;28;20058;-57
2023/05/06 18:39:00;;;;;;;13.05;8.90;;;;;;;17.33;100.00;165099.34;5070451;28;20434;-57
2023/05/06 18:41:25;;;;;;;11.18;6.30;;;;;;;17.20;100.00;165065.47;5072378;28;20032;-57
2023/05/06 18:43:50;;;;;;;5.28;4.53;;;;;;;17.06;100.00;165027.53;5071270;28;20475;-57
2023/05/06 18:46:16;;;;;;;8.60;4.85;;;;;;;16.93;100.00;164993.69;5071787;28;20379;-57
2023/05/06 18:48:41;;;;;;;9.02;4.43;;;;;;;16.84;100.00;164969.25;5070962;28;20020;-57
2023/05/06 18:51:16;;;;;;;10.95;5.20;;;;;;;16.54;100.00;164890.66;5072674;28;20463;-56
2023/05/06 18:53:43;;;;;;;21.77;5.68;;;;;;;16.18;100.00;164797.19;5070909;28;20036;-56
2023/05/06 18:56:09;;;;;;;23.67;7.00;;;;;;;15.73;100.00;164679.38;5055261;28;20100;-56
2023/05/06 18:58:35;;;;;;;24.13;8.88;;;;;;;15.43;100.00;164600.84;5041154;28;20040;-56
2023/05/06 19:01:02;;;;;;;12.73;9.45;;;;;;;15.13;100.00;164522.31;5069125;28;20532;-56
2023/05/06 19:03:27;;;;;;;14.45;10.63;;;;;;;14.99;100.00;164484.44;5071163;28;20195;-56
2023/05/06 19:05:52;;;;;;;18.77;13.95;;;;;;;14.82;100.00;164441.13;5070294;28;20036;-56
2023/05/06 19:08:18;;;;;;;26.75;15.18;;;;;;;14.73;100.00;164416.75;5071789;28;20398;-56
2023/05/06 19:10:43;;;;;;;17.70;13.77;;;;;;;14.60;100.00;164384.25;5070469;28;20044;-56
2023/05/06 19:13:08;;;;;;;14.07;12.75;;;;;;;14.44;100.00;164340.94;5071814;28;20483;-57
2023/05/06 19:15:36;;;;;;;17.17;12.60;;;;;;;14.34;100.00;164315.22;5070180;28;20114;-56
2023/05/06 19:18:02;;;;;;;19.33;14.65;;;;;;;14.26;100.00;164294.91;5071750;28;20032;-56
2023/05/06 19:20:28;;;;;;;18.98;13.25;;;;;;;14.22;100.00;164282.78;5069951;28;20076;-56
2023/05/06 19:22:53;;;;;;;17.05;13.63;;;;;;;14.15;100.00;164265.19;5072002;28;20020;-56
2023/05/06 19:25:19;;;;;;;15.65;11.63;;;;;;;14.11;100.00;164254.38;5070530;28;20495;-56
2023/05/06 19:27:45;;;;;;;15.25;13.60;;;;;;;14.12;100.00;164258.41;5071392;28;20032;-56
2023/05/06 19:30:10;;;;;;;16.50;14.50;;;;;;;14.13;100.00;164259.75;5070181;28;20037;-56
2023/05/06 19:32:36;;;;;;;17.77;14.23;;;;;;;14.14;100.00;164262.47;5071677;28;20065;-57
2023/05/06 19:35:06;;;;;;;14.80;13.35;;;;;;;14.08;100.00;164246.25;5070812;28;20033;-56
2023/05/06 19:37:38;;;;;;;17.70;12.40;;;;;;;14.15;100.00;164265.19;5071049;28;20394;-56
2023/05/06 19:40:04;;;;;;;13.88;11.55;;;;;;;14.10;100.00;164251.66;5069962;28;20101;-57
2023/05/06 19:42:30;;;;;;;17.45;12.82;;;;;;;14.10;100.00;164251.66;5071081;28;20032;-57
2023/05/06 19:44:55;;;;;;;17.90;13.90;;;;;;;14.09;100.00;164248.94;5069984;28;20402;-57
2023/05/06 19:47:21;;;;;;;14.27;12.80;;;;;;;14.02;100.00;164230.03;5071046;28;20112;-56
2023/05/06 19:49:46;;;;;;;14.32;12.93;;;;;;;14.06;100.00;164242.19;5070344;28;20028;-56
2023/05/06 19:52:12;;;;;;;15.30;12.48;;;;;;;14.07;100.00;161669.19;5071299;28;20031;-56
2023/05/06 19:54:37;;;;;;;16.10;14.20;;;;;;;14.06;100.00;158344.78;5069713;28;20475;-56
2023/05/06 19:57:03;;;;;;;13.65;12.20;;;;;;;14.07;100.00;154658.09;5070759;28;20028;-57
2023/05/06 19:59:28;;;;;;;17.95;11.43;;;;;;;14.09;100.00;152533.88;5069307;28;20055;-54
2023/05/06 20:01:55;;;;;;;20.98;12.05;;;;;;;14.08;100.00;150758.81;5071163;28;20032;-56
2023/05/06 20:04:21;;;;;;;15.85;13.27;;;;;;;14.09;100.00;149698.13;5071198;28;20021;-56
2023/05/06 20:06:46;;;;;;;14.57;11.88;;;;;;;14.09;100.00;148635.22;5068750;28;20055;-57
2023/05/06 20:09:11;;;;;;;12.75;11.15;;;;;;;14.07;100.00;147568.94;5069841;28;20029;-56
2023/05/06 20:11:37;;;;;;;16.67;13.55;;;;;;;13.98;100.00;146837.81;5068392;28;20047;-57
2023/05/06 20:14:03;;;;;;;15.65;10.60;;;;;;;14.01;100.00;146491.00;5070126;28;20491;-56
2023/05/06 20:16:28;;;;;;;19.15;13.00;;;;;;;13.98;100.00;145421.88;5069449;28;20108;-57
2023/05/06 20:18:54;;;;;;;17.88;12.63;;;;;;;13.99;100.00;144008.84;5071016;28;20085;-57
2023/05/06 20:21:19;;;;;;;19.35;10.88;;;;;;;13.97;100.00;142944.06;5068615;28;20037;-57
2023/05/06 20:23:44;;;;;;;12.95;9.98;;;;;;;13.95;100.00;142585.69;5070893;28;20029;-56
2023/05/06 20:26:10;;;;;;;12.32;11.23;;;;;;;13.93;100.00;142935.84;5069270;28;20349;-56
2023/05/06 20:28:37;;;;;;;18.45;11.75;;;;;;;13.89;100.00;143280.13;5070414;28;20039;-57
2023/05/06 20:31:04;;;;;;;14.27;11.60;;;;;;;13.87;100.00;143627.94;5069235;28;20119;-57
2023/05/06 20:33:30;;;;;;;15.75;12.45;;;;;;;13.84;100.00;143267.22;5070695;28;20024;-56
2023/05/06 20:35:56;;;;;;;14.20;12.48;;;;;;;13.79;100.00;142903.03;5064774;28;20060;-57
2023/05/06 20:38:22;;;;;;;14.73;12.88;;;;;;;13.80;100.00;141138.88;5050501;28;20563;-58
2023/05/06 20:40:48;;;;;;;17.77;13.32;;;;;;;13.75;100.00;139007.31;5048978;28;20037;-57
2023/05/06 20:43:13;;;;;;;14.40;13.00;;;;;;;13.81;100.00;137253.84;5050817;28;20029;-56
2023/05/06 20:45:38;;;;;;;17.33;15.35;;;;;;;13.83;100.00;135138.94;5048479;28;20048;-57
2023/05/06 20:48:04;;;;;;;19.20;14.60;;;;;;;13.84;100.00;134082.41;5050154;28;20025;-57
2023/05/06 20:50:30;;;;;;;19.35;15.63;;;;;;;13.83;100.00;132317.34;5048517;28;20033;-56
2023/05/06 20:52:55;;;;;;;16.35;14.63;;;;;;;13.82;100.00;131961.41;5049600;28;20398;-56
2023/05/06 20:55:22;;;;;;;20.48;16.83;;;;;;;13.77;100.00;131246.47;5055538;28;20037;-56
2023/05/06 20:57:47;;;;;;;17.23;15.30;;;;;;;13.82;100.00;129845.91;5068995;28;20024;-57
2023/05/06 21:00:13;;;;;;;17.80;16.02;;;;;;;13.79;100.00;129135.72;5068393;28;20140;-56
2023/05/06 21:02:39;;;;;;;26.05;16.90;;;;;;;13.76;100.00;128072.28;5070138;28;20039;-56
2023/05/06 21:05:05;;;;;;;18.33;16.50;;;;;;;13.69;100.00;127002.03;5069074;28;20385;-56
2023/05/06 21:07:30;;;;;;;21.25;18.80;;;;;;;13.72;100.00;125598.66;5067801;28;20032;-56
2023/05/06 21:09:55;;;;;;;19.23;17.13;;;;;;;13.68;100.00;124534.41;5052290;28;20490;-56
2023/05/06 21:12:21;;;;;;;19.23;17.33;;;;;;;13.68;100.00;123479.69;5069645;28;20032;-56
2023/05/06 21:14:46;;;;;;;22.92;18.05;;;;;;;13.67;100.00;122070.44;5067906;28;20017;-57
2023/05/06 21:17:12;;;;;;;22.90;18.10;;;;;;;13.64;100.00;120657.78;5070011;28;20471;-56
2023/05/06 21:19:37;;;;;;;20.95;18.17;;;;;;;13.67;100.00;119607.97;5068810;28;20036;-57
2023/05/06 21:22:02;;;;;;;22.85;19.70;;;;;;;13.63;100.00;118899.16;5069531;28;20074;-57
2023/05/06 21:24:28;;;;;;;22.25;19.95;;;;;;;13.62;100.00;117843.00;5074384;28;20028;-56
2023/05/06 21:26:54;;;;;;;22.98;20.42;;;;;;;13.61;100.00;116787.16;5071577;28;20509;-57
2023/05/06 21:29:20;;;;;;;25.10;18.83;;;;;;;13.66;100.00;115038.75;5073411;28;20016;-56
2023/05/06 21:31:45;;;;;;;22.88;20.63;;;;;;;13.64;100.00;114685.75;5072742;28;20441;-56
2023/05/06 21:34:11;;;;;;;24.02;21.65;;;;;;;13.61;100.00;114329.06;5074420;28;20032;-57
2023/05/06 21:36:36;;;;;;;25.17;22.55;;;;;;;13.62;100.00;113627.97;5071923;28;20032;-57
2023/05/06 21:39:07;;;;;;;23.48;21.00;;;;;;;13.61;100.00;112924.22;5072884;28;20029;-57
2023/05/06 21:41:34;;;;;;;26.27;21.80;;;;;;;13.61;100.00;112223.31;5072147;28;20051;-57
2023/05/06 21:44:04;;;;;;;25.77;22.85;;;;;;;13.62;100.00;111523.44;5074174;28;20029;-58
2023/05/06 21:46:29;;;;;;;25.23;22.75;;;;;;;13.62;100.00;110821.88;5070875;28;20039;-57
2023/05/06 21:48:55;;;;;;;26.05;23.42;;;;;;;13.61;100.00;110820.06;5055618;28;20033;-57
2023/05/06 21:51:21;;;;;;;26.73;23.67;;;;;;;13.59;100.00;110465.75;5067260;28;20170;-57
2023/05/06 21:53:49;;;;;;;29.70;26.70;;;;;;;13.59;100.00;110114.16;5073661;28;20024;-57
2023/05/06 21:56:15;;;;;;;;;;;;;;;13.58;100.00;109762.63;5073152;28;20062;-57
2023/05/06 21:58:40;;;;;;;38.65;27.25;;;;;;;13.58;100.00;109412.00;5073281;28;19908;-57
2023/05/06 22:01:05;;;;;;;29.38;26.48;;;;;;;13.54;100.00;109755.47;5072072;28;20044;-57
2023/05/06 22:03:31;;;;;;;28.55;25.38;;;;;;;13.53;100.00;109403.09;5073579;28;20039;-57
2023/05/06 22:05:56;;;;;;;32.97;25.55;;;;;;;13.50;100.00;109047.22;5072122;28;20044;-57
2023/05/06 22:08:21;;;;;;;40.47;28.48;;;;;;;13.50;100.00;108696.69;5059926;28;20025;-57
2023/05/06 22:10:47;;;;;;;32.72;28.25;;;;;;;13.50;100.00;107995.75;5063167;28;20043;-57
2023/05/06 22:13:12;;;;;;;32.40;28.77;;;;;;;13.50;100.00;107294.94;5073009;28;20025;-57
2023/05/06 22:15:37;;;;;;;35.00;29.25;;;;;;;13.51;100.00;106595.97;5072010;28;20063;-57
2023/05/06 22:18:03;;;;;;;30.90;27.70;;;;;;;13.50;100.00;105543.41;5073499;28;20488;-57
2023/05/06 22:20:29;;;;;;;31.63;26.95;;;;;;;13.51;100.00;104844.72;5071178;28;20045;-58
2023/05/06 22:22:54;;;;;;;31.80;28.42;;;;;;;13.49;100.00;104491.16;5073501;28;20024;-56
2023/05/06 22:25:20;;;;;;;31.45;28.10;;;;;;;13.49;100.00;103791.75;5071833;28;20089;-57
2023/05/06 22:27:45;;;;;;;31.70;27.48;;;;;;;13.48;100.00;103439.19;5072899;28;20020;-57
2023/05/06 22:30:12;;;;;;;32.03;28.65;;;;;;;13.45;100.00;103435.00;5071951;28;20032;-56
2023/05/06 22:32:37;;;;;;;35.53;31.65;;;;;;;13.47;100.00;103087.50;5072748;28;20024;-57
2023/05/06 22:35:03;;;;;;;30.70;27.40;;;;;;;13.46;100.00;103086.69;5071192;28;20036;-57
2023/05/06 22:37:28;;;;;;;37.03;30.08;;;;;;;13.44;100.00;102732.53;5072669;28;20072;-57
2023/05/06 22:39:56;;;;;;;32.92;29.15;;;;;;;13.42;100.00;102729.19;5071751;28;20526;-57
2023/05/06 22:42:23;;;;;;;35.67;29.52;;;;;;;13.41;100.00;103078.28;5072443;28;20028;-57
2023/05/06 22:44:49;;;;;;;35.22;31.50;;;;;;;13.40;100.00;103425.75;5071570;28;20282;-58
2023/05/06 22:47:15;;;;;;;35.72;31.85;;;;;;;13.37;100.00;103420.69;5072697;28;20158;-58
2023/05/06 22:49:41;;;;;;;38.13;32.40;;;;;;;13.38;100.00;103423.25;5071287;28;20059;-57
2023/05/06 22:52:06;;;;;;;38.17;34.33;;;;;;;13.37;100.00;103071.56;5073075;28;20028;-57
2023/05/06 22:54:31;;;;;;;36.72;32.47;;;;;;;13.35;100.00;103068.22;5070788;28;20470;-57
2023/05/06 22:56:57;;;;;;;37.60;32.13;;;;;;;13.36;100.00;102719.16;5072610;28;20055;-57
2023/05/06 22:59:22;;;;;;;37.88;33.80;;;;;;;13.34;100.00;102366.75;5072134;28;20058;-57
2023/05/06 23:01:47;;;;;;;35.83;31.30;;;;;;;13.35;100.00;101667.91;5071248;28;20036;-57
2023/05/06 23:04:13;;;;;;;36.05;32.13;;;;;;;13.33;100.00;101316.47;5072446;28;20439;-57
2023/05/06 23:06:38;;;;;;;34.50;30.70;;;;;;;13.31;100.00;100963.44;5070513;28;20102;-57
2023/05/06 23:09:05;;;;;;;36.97;32.55;;;;;;;13.28;100.00;100958.53;5072152;28;20020;-57
2023/05/06 23:11:30;;;;;;;47.13;32.22;;;;;;;13.26;100.00;100955.25;5064691;28;20044;-57
2023/05/06 23:13:56;;;;;;;37.30;32.95;;;;;;;13.23;100.00;101300.03;5069986;28;20036;-57
2023/05/06 23:16:22;;;;;;;37.88;33.75;;;;;;;13.22;100.00;101648.09;5070999;28;20048;-57
2023/05/06 23:18:47;;;;;;;37.92;33.88;;;;;;;13.19;100.00;101992.91;5071849;28;20387;-57
2023/05/06 23:21:12;;;;;;;38.42;34.55;;;;;;;13.17;100.00;101989.59;5070531;28;20039;-57
2023/05/06 23:23:38;;;;;;;37.38;33.38;;;;;;;13.16;100.00;101638.22;5071932;28;20078;-57
2023/05/06 23:26:03;;;;;;;40.88;35.75;;;;;;;13.16;100.00;101638.22;5070833;28;20037;-57
2023/05/06 23:28:29;;;;;;;38.80;34.72;;;;;;;13.14;100.00;101285.25;5071358;28;20102;-57
2023/05/06 23:30:54;;;;;;;40.63;36.00;;;;;;;13.13;100.00;101283.63;5070855;28;20112;-58
2023/05/06 23:33:19;;;;;;;38.22;32.92;;;;;;;13.11;100.00;101280.31;5072064;28;20016;-58
2023/05/06 23:35:45;;;;;;;41.63;33.40;;;;;;;13.10;100.00;100929.06;5070036;28;20059;-57
2023/05/06 23:38:10;;;;;;;37.53;32.83;;;;;;;13.09;100.00;100927.41;5071805;28;20032;-58
2023/05/06 23:40:36;;;;;;;40.75;36.38;;;;;;;13.08;100.00;100925.75;5070134;28;20037;-57
2023/05/06 23:43:01;;;;;;;37.28;33.22;;;;;;;13.07;100.00;100924.16;5071410;28;20028;-57
2023/05/06 23:45:26;;;;;;;36.55;32.85;;;;;;;13.05;100.00;100572.13;5069236;28;20045;-58
2023/05/06 23:47:52;;;;;;;40.17;34.53;;;;;;;12.98;100.00;100211.19;5071797;28;20020;-57
2023/05/06 23:50:18;;;;;;;36.60;32.67;;;;;;;13.05;100.00;99873.06;5069861;28;20123;-58
2023/05/06 23:52:43;;;;;;;38.75;33.40;;;;;;;13.05;100.00;99522.78;5071452;28;20390;-58
2023/05/06 23:55:08;;;;;;;42.70;38.10;;;;;;;13.04;100.00;99521.19;5070273;28;20040;-57
2023/05/06 23:57:34;;;;;;;39.33;34.50;;;;;;;13.04;100.00;99171.75;5071169;28;20024;-58
2023/05/06 23:59:59;;;;;;;40.20;34.50;;;;;;;13.06;100.00;98825.53;5070268;28;20537;-58
